sensor_id;sensor_type;location;lat;lon;timestamp;pressure;altitude;pressure_sealevel;temperature;humidity
26563;BME280;14217;50.986;5.826;2023-04-23T00:03:56;100179.72;;;20.19;43.09
26563;BME280;14217;50.986;5.826;2023-04-23T00:08:59;100177.75;;;20.23;43.01
26563;BME280;14217;50.986;5.826;2023-04-23T00:14:02;100174.25;;;20.22;42.95
26563;BME280;14217;50.986;5.826;2023-04-23T00:19:03;100167.19;;;20.21;42.93
26563;BME280;14217;50.986;5.826;2023-04-23T00:24:06;100165.41;;;20.22;42.91
26563;BME280;14217;50.986;5.826;2023-04-23T00:29:08;100153.91;;;20.21;42.91
26563;BME280;14217;50.986;5.826;2023-04-23T00:34:09;100160.09;;;20.22;42.89
26563;BME280;14217;50.986;5.826;2023-04-23T00:39:11;100161.03;;;20.21;42.96
26563;BME280;14217;50.986;5.826;2023-04-23T00:44:13;100149.34;;;20.23;43.22
26563;BME280;14217;50.986;5.826;2023-04-23T00:49:16;100132.53;;;20.23;42.92
26563;BME280;14217;50.986;5.826;2023-04-23T00:54:19;100141.34;;;20.23;42.86
26563;BME280;14217;50.986;5.826;2023-04-23T00:59:21;100138.69;;;20.23;42.87
26563;BME280;14217;50.986;5.826;2023-04-23T01:04:23;100131.69;;;20.22;43.06
26563;BME280;14217;50.986;5.826;2023-04-23T01:09:28;100136.16;;;20.22;43.17
26563;BME280;14217;50.986;5.826;2023-04-23T01:14:30;100132.53;;;20.23;43.04
26563;BME280;14217;50.986;5.826;2023-04-23T01:19:32;100123.88;;;20.19;43.08
26563;BME280;14217;50.986;5.826;2023-04-23T01:24:34;100122.19;;;20.18;42.95
26563;BME280;14217;50.986;5.826;2023-04-23T01:29:38;100122.28;;;20.17;43.33
26563;BME280;14217;50.986;5.826;2023-04-23T01:34:40;100122.19;;;20.18;43.28
26563;BME280;14217;50.986;5.826;2023-04-23T01:39:43;100120.56;;;20.16;43.41
26563;BME280;14217;50.986;5.826;2023-04-23T01:44:45;100117.72;;;20.19;43.11
26563;BME280;14217;50.986;5.826;2023-04-23T01:49:46;100120.94;;;20.24;42.96
26563;BME280;14217;50.986;5.826;2023-04-23T01:54:48;100119.44;;;20.20;42.95
26563;BME280;14217;50.986;5.826;2023-04-23T01:59:53;100115.81;;;20.21;43.01
26563;BME280;14217;50.986;5.826;2023-04-23T02:05:00;100105.25;;;20.19;43.09
26563;BME280;14217;50.986;5.826;2023-04-23T02:10:05;100101.75;;;20.19;42.85
26563;BME280;14217;50.986;5.826;2023-04-23T02:15:08;100100.06;;;20.18;43.33
26563;BME280;14217;50.986;5.826;2023-04-23T02:20:11;100095.50;;;20.20;43.28
26563;BME280;14217;50.986;5.826;2023-04-23T02:25:13;100091.97;;;20.19;42.92
26563;BME280;14217;50.986;5.826;2023-04-23T02:30:16;100098.16;;;20.20;43.25
26563;BME280;14217;50.986;5.826;2023-04-23T02:35:18;100093.00;;;20.17;43.22
26563;BME280;14217;50.986;5.826;2023-04-23T02:40:20;100090.34;;;20.17;43.37
26563;BME280;14217;50.986;5.826;2023-04-23T02:45:22;100095.59;;;20.18;43.36
26563;BME280;14217;50.986;5.826;2023-04-23T02:50:23;100084.75;;;20.21;43.22
26563;BME280;14217;50.986;5.826;2023-04-23T02:55:26;100091.97;;;20.19;43.01
26563;BME280;14217;50.986;5.826;2023-04-23T03:00:30;100098.34;;;20.17;43.12
26563;BME280;14217;50.986;5.826;2023-04-23T03:05:32;100099.09;;;20.19;43.34
26563;BME280;14217;50.986;5.826;2023-04-23T03:10:34;100096.63;;;20.16;43.18
26563;BME280;14217;50.986;5.826;2023-04-23T03:15:35;100083.44;;;20.14;43.18
26563;BME280;14217;50.986;5.826;2023-04-23T03:20:37;100086.84;;;20.16;43.07
26563;BME280;14217;50.986;5.826;2023-04-23T03:25:39;100085.88;;;20.17;43.04
26563;BME280;14217;50.986;5.826;2023-04-23T03:30:41;100081.44;;;20.18;43.26
26563;BME280;14217;50.986;5.826;2023-04-23T03:35:43;100082.28;;;20.18;43.36
26563;BME280;14217;50.986;5.826;2023-04-23T03:40:45;100080.56;;;20.17;43.41
26563;BME280;14217;50.986;5.826;2023-04-23T03:45:47;100072.50;;;20.19;43.22
26563;BME280;14217;50.986;5.826;2023-04-23T03:50:49;100073.47;;;20.18;43.13
26563;BME280;14217;50.986;5.826;2023-04-23T03:55:51;100070.03;;;20.16;43.44
26563;BME280;14217;50.986;5.826;2023-04-23T04:00:53;100072.31;;;20.22;43.30
26563;BME280;14217;50.986;5.826;2023-04-23T04:05:54;100078.88;;;20.16;43.38
26563;BME280;14217;50.986;5.826;2023-04-23T04:10:56;100082.00;;;20.23;43.09
26563;BME280;14217;50.986;5.826;2023-04-23T04:15:58;100081.31;;;20.19;43.12
26563;BME280;14217;50.986;5.826;2023-04-23T04:21:00;100072.59;;;20.17;43.31
26563;BME280;14217;50.986;5.826;2023-04-23T04:26:02;100078.97;;;20.15;43.48
26563;BME280;14217;50.986;5.826;2023-04-23T04:31:04;100075.44;;;20.14;43.21
26563;BME280;14217;50.986;5.826;2023-04-23T04:36:07;100085.72;;;20.20;43.22
26563;BME280;14217;50.986;5.826;2023-04-23T04:41:10;100078.03;;;20.16;43.17
26563;BME280;14217;50.986;5.826;2023-04-23T04:46:12;100078.78;;;20.18;43.16
26563;BME280;14217;50.986;5.826;2023-04-23T04:51:14;100080.47;;;20.19;43.26
26563;BME280;14217;50.986;5.826;2023-04-23T04:56:16;100080.84;;;20.13;43.23
26563;BME280;14217;50.986;5.826;2023-04-23T05:01:19;100090.66;;;20.12;43.45
26563;BME280;14217;50.986;5.826;2023-04-23T05:06:21;100100.16;;;20.16;43.45
26563;BME280;14217;50.986;5.826;2023-04-23T05:11:23;100084.09;;;20.18;43.24
26563;BME280;14217;50.986;5.826;2023-04-23T05:16:25;100090.56;;;20.14;43.56
26563;BME280;14217;50.986;5.826;2023-04-23T05:21:27;100084.28;;;20.15;43.58
26563;BME280;14217;50.986;5.826;2023-04-23T05:26:29;100085.88;;;20.17;43.12
26563;BME280;14217;50.986;5.826;2023-04-23T05:31:31;100093.09;;;20.15;43.44
26563;BME280;14217;50.986;5.826;2023-04-23T05:36:33;100079.94;;;20.14;43.22
26563;BME280;14217;50.986;5.826;2023-04-23T05:41:35;100093.97;;;20.16;43.38
26563;BME280;14217;50.986;5.826;2023-04-23T05:46:36;100092.84;;;20.20;43.37
26563;BME280;14217;50.986;5.826;2023-04-23T05:51:39;100096.53;;;20.17;43.45
26563;BME280;14217;50.986;5.826;2023-04-23T05:56:41;100095.69;;;20.17;43.35
26563;BME280;14217;50.986;5.826;2023-04-23T06:01:43;100094.53;;;20.21;43.41
26563;BME280;14217;50.986;5.826;2023-04-23T06:06:45;100085.78;;;20.19;43.11
26563;BME280;14217;50.986;5.826;2023-04-23T06:11:47;100083.03;;;20.20;43.07
26563;BME280;14217;50.986;5.826;2023-04-23T06:16:51;100087.31;;;20.23;43.28
26563;BME280;14217;50.986;5.826;2023-04-23T06:21:53;100082.00;;;20.23;43.21
26563;BME280;14217;50.986;5.826;2023-04-23T06:26:55;100077.63;;;20.22;43.24
26563;BME280;14217;50.986;5.826;2023-04-23T06:32:00;100078.56;;;20.21;43.40
26563;BME280;14217;50.986;5.826;2023-04-23T06:37:02;100071.34;;;20.23;43.21
26563;BME280;14217;50.986;5.826;2023-04-23T06:42:04;100062.63;;;20.21;43.13
26563;BME280;14217;50.986;5.826;2023-04-23T06:47:06;100069.66;;;20.22;43.10
26563;BME280;14217;50.986;5.826;2023-04-23T06:52:08;100065.81;;;20.26;43.07
26563;BME280;14217;50.986;5.826;2023-04-23T06:57:10;100069.34;;;20.26;43.07
26563;BME280;14217;50.986;5.826;2023-04-23T07:02:11;100072.47;;;20.33;44.03
26563;BME280;14217;50.986;5.826;2023-04-23T07:07:13;100050.31;;;20.74;42.83
26563;BME280;14217;50.986;5.826;2023-04-23T07:12:15;100050.16;;;20.90;42.38
26563;BME280;14217;50.986;5.826;2023-04-23T07:17:17;100044.44;;;21.09;42.17
26563;BME280;14217;50.986;5.826;2023-04-23T07:22:19;100048.69;;;21.11;42.08
26563;BME280;14217;50.986;5.826;2023-04-23T07:27:21;100042.34;;;20.87;42.73
26563;BME280;14217;50.986;5.826;2023-04-23T07:32:22;100038.28;;;20.68;43.31
26563;BME280;14217;50.986;5.826;2023-04-23T07:37:28;100040.50;;;20.62;43.23
26563;BME280;14217;50.986;5.826;2023-04-23T07:42:30;100029.09;;;20.60;43.58
26563;BME280;14217;50.986;5.826;2023-04-23T07:47:32;100023.88;;;20.58;43.75
26563;BME280;14217;50.986;5.826;2023-04-23T07:52:34;100024.84;;;20.70;43.19
26563;BME280;14217;50.986;5.826;2023-04-23T07:57:36;100030.00;;;20.86;45.82
26563;BME280;14217;50.986;5.826;2023-04-23T08:02:38;100028.97;;;21.01;46.24
26563;BME280;14217;50.986;5.826;2023-04-23T08:07:40;100023.97;;;21.09;45.91
26563;BME280;14217;50.986;5.826;2023-04-23T08:12:42;100006.41;;;21.20;46.24
26563;BME280;14217;50.986;5.826;2023-04-23T08:17:44;100010.13;;;21.17;45.89
26563;BME280;14217;50.986;5.826;2023-04-23T08:22:46;100007.66;;;21.27;45.20
26563;BME280;14217;50.986;5.826;2023-04-23T08:27:48;99998.63;;;21.17;44.79
26563;BME280;14217;50.986;5.826;2023-04-23T08:32:51;100002.34;;;21.14;44.50
26563;BME280;14217;50.986;5.826;2023-04-23T08:37:56;100001.72;;;21.10;44.15
26563;BME280;14217;50.986;5.826;2023-04-23T08:43:01;100008.59;;;20.75;45.27
26563;BME280;14217;50.986;5.826;2023-04-23T08:48:03;100016.09;;;20.68;45.32
26563;BME280;14217;50.986;5.826;2023-04-23T08:53:06;100009.78;;;20.56;45.60
26563;BME280;14217;50.986;5.826;2023-04-23T08:58:08;100001.88;;;20.55;45.30
26563;BME280;14217;50.986;5.826;2023-04-23T09:03:10;100002.72;;;20.55;45.40
26563;BME280;14217;50.986;5.826;2023-04-23T09:08:13;99995.78;;;20.67;44.76
26563;BME280;14217;50.986;5.826;2023-04-23T09:13:15;99995.91;;;20.91;43.44
26563;BME280;14217;50.986;5.826;2023-04-23T09:18:18;99997.53;;;20.94;43.10
26563;BME280;14217;50.986;5.826;2023-04-23T09:23:20;99978.91;;;20.94;43.32
26563;BME280;14217;50.986;5.826;2023-04-23T09:28:36;99980.81;;;20.91;43.15
26563;BME280;14217;50.986;5.826;2023-04-23T09:33:38;99976.44;;;20.90;43.37
26563;BME280;14217;50.986;5.826;2023-04-23T09:38:40;99962.81;;;20.95;43.19
26563;BME280;14217;50.986;5.826;2023-04-23T09:43:42;99970.03;;;20.93;43.16
26563;BME280;14217;50.986;5.826;2023-04-23T09:48:44;99968.44;;;20.90;42.79
26563;BME280;14217;50.986;5.826;2023-04-23T09:53:46;99963.13;;;20.90;43.00
26563;BME280;14217;50.986;5.826;2023-04-23T09:58:48;99956.72;;;20.93;42.47
26563;BME280;14217;50.986;5.826;2023-04-23T10:03:52;99953.78;;;20.98;42.21
26563;BME280;14217;50.986;5.826;2023-04-23T10:08:57;99951.31;;;20.95;42.49
26563;BME280;14217;50.986;5.826;2023-04-23T10:13:59;99951.53;;;20.91;42.44
26563;BME280;14217;50.986;5.826;2023-04-23T10:19:02;99947.38;;;20.87;42.21
26563;BME280;14217;50.986;5.826;2023-04-23T10:24:05;99950.03;;;20.87;42.04
26563;BME280;14217;50.986;5.826;2023-04-23T10:29:12;99953.75;;;20.85;41.92
26563;BME280;14217;50.986;5.826;2023-04-23T10:34:16;99951.41;;;20.80;41.65
26563;BME280;14217;50.986;5.826;2023-04-23T10:39:20;99934.25;;;20.84;41.84
26563;BME280;14217;50.986;5.826;2023-04-23T10:44:32;99924.25;;;20.88;42.12
26563;BME280;14217;50.986;5.826;2023-04-23T10:49:54;99918.84;;;20.89;41.87
26563;BME280;14217;50.986;5.826;2023-04-23T10:54:57;99913.19;;;20.94;41.94
26563;BME280;14217;50.986;5.826;2023-04-23T11:00:01;99915.00;;;20.94;42.10
26563;BME280;14217;50.986;5.826;2023-04-23T11:05:07;99903.28;;;20.96;41.94
26563;BME280;14217;50.986;5.826;2023-04-23T11:10:11;99905.94;;;20.96;41.71
26563;BME280;14217;50.986;5.826;2023-04-23T11:15:18;99902.44;;;20.96;41.71
26563;BME280;14217;50.986;5.826;2023-04-23T11:20:21;99898.28;;;20.91;41.86
26563;BME280;14217;50.986;5.826;2023-04-23T11:25:24;99887.31;;;20.96;41.96
26563;BME280;14217;50.986;5.826;2023-04-23T11:30:28;99870.34;;;20.97;42.04
26563;BME280;14217;50.986;5.826;2023-04-23T11:35:31;99866.19;;;20.93;42.08
26563;BME280;14217;50.986;5.826;2023-04-23T11:40:40;99860.66;;;20.96;41.75
26563;BME280;14217;50.986;5.826;2023-04-23T11:45:43;99856.19;;;20.97;41.86
26563;BME280;14217;50.986;5.826;2023-04-23T11:50:45;99830.31;;;20.99;41.53
26563;BME280;14217;50.986;5.826;2023-04-23T11:55:47;99819.56;;;21.00;41.53
26563;BME280;14217;50.986;5.826;2023-04-23T12:00:56;99809.75;;;21.01;41.79
26563;BME280;14217;50.986;5.826;2023-04-23T12:05:59;99804.19;;;21.04;41.24
26563;BME280;14217;50.986;5.826;2023-04-23T12:11:02;99792.63;;;20.92;41.65
26563;BME280;14217;50.986;5.826;2023-04-23T12:16:06;99783.03;;;20.89;41.70
26563;BME280;14217;50.986;5.826;2023-04-23T12:21:11;99783.03;;;20.89;41.37
26563;BME280;14217;50.986;5.826;2023-04-23T12:26:14;99778.75;;;20.87;41.72
26563;BME280;14217;50.986;5.826;2023-04-23T12:31:27;99762.34;;;20.93;41.15
26563;BME280;14217;50.986;5.826;2023-04-23T12:36:30;99755.78;;;20.86;41.54
26563;BME280;14217;50.986;5.826;2023-04-23T12:41:32;99742.47;;;20.86;41.10
26563;BME280;14217;50.986;5.826;2023-04-23T12:46:34;99736.06;;;20.88;41.14
26563;BME280;14217;50.986;5.826;2023-04-23T12:51:36;99730.97;;;20.85;41.17
26563;BME280;14217;50.986;5.826;2023-04-23T12:56:38;99723.72;;;20.87;40.92
26563;BME280;14217;50.986;5.826;2023-04-23T13:01:39;99714.88;;;20.87;40.92
26563;BME280;14217;50.986;5.826;2023-04-23T13:06:42;99718.41;;;20.87;40.80
26563;BME280;14217;50.986;5.826;2023-04-23T13:11:44;99721.50;;;20.81;40.96
26563;BME280;14217;50.986;5.826;2023-04-23T13:16:49;99718.59;;;20.84;40.79
26563;BME280;14217;50.986;5.826;2023-04-23T13:21:51;99737.03;;;20.87;40.87
26563;BME280;14217;50.986;5.826;2023-04-23T13:26:54;99745.13;;;20.86;40.75
26563;BME280;14217;50.986;5.826;2023-04-23T13:31:56;99739.91;;;20.84;40.75
26563;BME280;14217;50.986;5.826;2023-04-23T13:36:59;99727.44;;;20.85;41.07
26563;BME280;14217;50.986;5.826;2023-04-23T13:42:01;99718.59;;;20.84;41.01
26563;BME280;14217;50.986;5.826;2023-04-23T13:47:10;99704.69;;;20.81;41.16
26563;BME280;14217;50.986;5.826;2023-04-23T13:52:12;99699.38;;;20.81;41.13
26563;BME280;14217;50.986;5.826;2023-04-23T13:57:14;99678.16;;;20.79;41.20
26563;BME280;14217;50.986;5.826;2023-04-23T14:02:16;99682.75;;;20.77;41.49
26563;BME280;14217;50.986;5.826;2023-04-23T14:07:18;99675.59;;;20.78;41.36
26563;BME280;14217;50.986;5.826;2023-04-23T14:12:19;99668.69;;;20.75;41.61
26563;BME280;14217;50.986;5.826;2023-04-23T14:17:21;99663.28;;;20.77;41.50
26563;BME280;14217;50.986;5.826;2023-04-23T14:22:23;99655.28;;;20.77;41.33
26563;BME280;14217;50.986;5.826;2023-04-23T14:27:25;99659.75;;;20.76;41.39
26563;BME280;14217;50.986;5.826;2023-04-23T14:32:27;99646.44;;;20.76;41.75
26563;BME280;14217;50.986;5.826;2023-04-23T14:37:29;99649.09;;;20.76;41.66
26563;BME280;14217;50.986;5.826;2023-04-23T14:42:31;99639.94;;;20.80;41.66
26563;BME280;14217;50.986;5.826;2023-04-23T14:47:32;99626.97;;;20.76;41.82
26563;BME280;14217;50.986;5.826;2023-04-23T14:52:34;99613.31;;;20.80;41.67
26563;BME280;14217;50.986;5.826;2023-04-23T14:57:36;99600.34;;;20.76;41.92
26563;BME280;14217;50.986;5.826;2023-04-23T15:02:38;99596.72;;;20.77;41.85
26563;BME280;14217;50.986;5.826;2023-04-23T15:07:41;99600.25;;;20.77;41.75
26563;BME280;14217;50.986;5.826;2023-04-23T15:12:53;99593.09;;;20.78;41.63
26563;BME280;14217;50.986;5.826;2023-04-23T15:18:00;99580.75;;;20.77;42.02
26563;BME280;14217;50.986;5.826;2023-04-23T15:23:01;99565.38;;;20.80;41.69
26563;BME280;14217;50.986;5.826;2023-04-23T15:28:03;99548.69;;;20.78;41.85
26563;BME280;14217;50.986;5.826;2023-04-23T15:33:07;99535.81;;;20.72;42.30
26563;BME280;14217;50.986;5.826;2023-04-23T15:38:09;99528.13;;;20.80;43.16
26563;BME280;14217;50.986;5.826;2023-04-23T15:43:11;99519.06;;;20.83;43.52
26563;BME280;14217;50.986;5.826;2023-04-23T15:48:14;99505.75;;;20.83;43.79
26563;BME280;14217;50.986;5.826;2023-04-23T15:53:16;99501.28;;;20.83;43.91
26563;BME280;14217;50.986;5.826;2023-04-23T15:58:20;99485.44;;;20.82;43.90
26563;BME280;14217;50.986;5.826;2023-04-23T16:03:22;99495.09;;;20.83;44.08
26563;BME280;14217;50.986;5.826;2023-04-23T16:08:24;99481.78;;;20.83;44.25
26563;BME280;14217;50.986;5.826;2023-04-23T16:13:26;99479.13;;;20.83;44.10
26563;BME280;14217;50.986;5.826;2023-04-23T16:18:29;99475.88;;;20.79;44.07
26563;BME280;14217;50.986;5.826;2023-04-23T16:23:32;99459.16;;;20.77;44.47
26563;BME280;14217;50.986;5.826;2023-04-23T16:28:34;99456.50;;;20.77;44.45
26563;BME280;14217;50.986;5.826;2023-04-23T16:33:36;99444.88;;;20.78;44.42
26563;BME280;14217;50.986;5.826;2023-04-23T16:38:38;99430.84;;;20.76;44.21
26563;BME280;14217;50.986;5.826;2023-04-23T16:43:41;99415.47;;;20.80;44.73
26563;BME280;14217;50.986;5.826;2023-04-23T16:48:43;99410.16;;;20.80;44.97
26563;BME280;14217;50.986;5.826;2023-04-23T16:53:45;99397.84;;;20.79;44.49
26563;BME280;14217;50.986;5.826;2023-04-23T16:58:47;99399.25;;;20.83;44.40
26563;BME280;14217;50.986;5.826;2023-04-23T17:03:49;99378.84;;;20.83;44.38
26563;BME280;14217;50.986;5.826;2023-04-23T17:08:52;99367.94;;;20.86;44.35
26563;BME280;14217;50.986;5.826;2023-04-23T17:13:55;99363.09;;;20.80;44.55
26563;BME280;14217;50.986;5.826;2023-04-23T17:18:57;99352.59;;;20.79;44.71
26563;BME280;14217;50.986;5.826;2023-04-23T17:23:59;99338.19;;;20.81;44.33
26563;BME280;14217;50.986;5.826;2023-04-23T17:29:01;99331.03;;;20.82;44.26
26563;BME280;14217;50.986;5.826;2023-04-23T17:34:03;99330.19;;;20.81;44.20
26563;BME280;14217;50.986;5.826;2023-04-23T17:39:05;99317.72;;;20.82;44.09
26563;BME280;14217;50.986;5.826;2023-04-23T17:44:08;99326.56;;;20.82;43.85
26563;BME280;14217;50.986;5.826;2023-04-23T17:49:09;99316.75;;;20.83;43.91
26563;BME280;14217;50.986;5.826;2023-04-23T17:54:11;99312.50;;;20.80;43.83
26563;BME280;14217;50.986;5.826;2023-04-23T17:59:13;99320.28;;;20.83;43.63
26563;BME280;14217;50.986;5.826;2023-04-23T18:04:16;99315.91;;;20.82;43.49
26563;BME280;14217;50.986;5.826;2023-04-23T18:09:18;99321.97;;;20.84;43.67
26563;BME280;14217;50.986;5.826;2023-04-23T18:14:23;99338.91;;;20.83;44.09
26563;BME280;14217;50.986;5.826;2023-04-23T18:19:25;99347.72;;;20.84;44.31
26563;BME280;14217;50.986;5.826;2023-04-23T18:24:27;99341.44;;;20.85;43.86
26563;BME280;14217;50.986;5.826;2023-04-23T18:29:29;99354.16;;;20.81;43.79
26563;BME280;14217;50.986;5.826;2023-04-23T18:34:35;99336.97;;;20.85;43.67
26563;BME280;14217;50.986;5.826;2023-04-23T18:39:38;99363.81;;;20.82;43.82
26563;BME280;14217;50.986;5.826;2023-04-23T18:44:41;99379.56;;;20.85;43.61
26563;BME280;14217;50.986;5.826;2023-04-23T18:49:45;99383.19;;;20.84;43.44
26563;BME280;14217;50.986;5.826;2023-04-23T18:54:47;99391.16;;;20.84;43.24
26563;BME280;14217;50.986;5.826;2023-04-23T18:59:49;99395.66;;;20.84;43.45
26563;BME280;14217;50.986;5.826;2023-04-23T19:04:51;99425.78;;;20.84;43.10
26563;BME280;14217;50.986;5.826;2023-04-23T19:09:53;99428.44;;;20.84;43.20
26563;BME280;14217;50.986;5.826;2023-04-23T19:14:55;99415.38;;;20.81;42.86
26563;BME280;14217;50.986;5.826;2023-04-23T19:19:56;99436.41;;;20.84;42.84
26563;BME280;14217;50.986;5.826;2023-04-23T19:24:58;99444.66;;;20.81;42.88
26563;BME280;14217;50.986;5.826;2023-04-23T19:30:01;99427.84;;;20.81;43.21
26563;BME280;14217;50.986;5.826;2023-04-23T19:35:03;99433.28;;;20.79;43.18
26563;BME280;14217;50.986;5.826;2023-04-23T19:40:06;99426.50;;;20.75;44.07
26563;BME280;14217;50.986;5.826;2023-04-23T19:45:09;99433.38;;;20.78;44.29
26563;BME280;14217;50.986;5.826;2023-04-23T19:50:11;99440.53;;;20.77;44.22
26563;BME280;14217;50.986;5.826;2023-04-23T19:55:15;99445.00;;;20.77;44.28
26563;BME280;14217;50.986;5.826;2023-04-23T20:00:18;99448.28;;;20.80;43.86
26563;BME280;14217;50.986;5.826;2023-04-23T20:05:20;99445.75;;;20.79;44.02
26563;BME280;14217;50.986;5.826;2023-04-23T20:10:23;99437.63;;;20.80;43.92
26563;BME280;14217;50.986;5.826;2023-04-23T20:15:30;99465.31;;;20.78;44.20
26563;BME280;14217;50.986;5.826;2023-04-23T20:20:33;99457.44;;;20.76;44.13
26563;BME280;14217;50.986;5.826;2023-04-23T20:25:36;99450.94;;;20.80;43.88
26563;BME280;14217;50.986;5.826;2023-04-23T20:30:38;99461.72;;;20.79;44.21
26563;BME280;14217;50.986;5.826;2023-04-23T20:35:39;99456.38;;;20.79;44.08
26563;BME280;14217;50.986;5.826;2023-04-23T20:40:46;99452.00;;;20.78;44.49
26563;BME280;14217;50.986;5.826;2023-04-23T20:45:48;99462.66;;;20.78;44.34
26563;BME280;14217;50.986;5.826;2023-04-23T20:50:51;99463.50;;;20.78;44.64
26563;BME280;14217;50.986;5.826;2023-04-23T20:55:53;99467.03;;;20.79;44.34
26563;BME280;14217;50.986;5.826;2023-04-23T21:00:57;99473.31;;;20.78;44.61
26563;BME280;14217;50.986;5.826;2023-04-23T21:05:59;99461.81;;;20.77;44.38
26563;BME280;14217;50.986;5.826;2023-04-23T21:11:01;99469.81;;;20.77;44.05
26563;BME280;14217;50.986;5.826;2023-04-23T21:16:03;99463.13;;;20.71;43.90
26563;BME280;14217;50.986;5.826;2023-04-23T21:21:05;99467.50;;;20.73;43.93
26563;BME280;14217;50.986;5.826;2023-04-23T21:26:08;99454.06;;;20.74;43.68
26563;BME280;14217;50.986;5.826;2023-04-23T21:31:17;99461.31;;;20.72;43.99
26563;BME280;14217;50.986;5.826;2023-04-23T21:36:22;99453.94;;;20.76;43.98
26563;BME280;14217;50.986;5.826;2023-04-23T21:41:24;99458.66;;;20.72;44.09
26563;BME280;14217;50.986;5.826;2023-04-23T21:46:26;99464.66;;;20.63;44.67
26563;BME280;14217;50.986;5.826;2023-04-23T21:51:28;99472.94;;;20.71;44.23
26563;BME280;14217;50.986;5.826;2023-04-23T21:56:31;99476.53;;;20.70;44.25
26563;BME280;14217;50.986;5.826;2023-04-23T22:01:32;99481.66;;;20.73;43.86
26563;BME280;14217;50.986;5.826;2023-04-23T22:06:37;99485.16;;;20.74;44.02
26563;BME280;14217;50.986;5.826;2023-04-23T22:11:39;99486.97;;;20.73;43.69
26563;BME280;14217;50.986;5.826;2023-04-23T22:16:49;99498.56;;;20.72;43.67
26563;BME280;14217;50.986;5.826;2023-04-23T22:21:51;99485.25;;;20.72;43.55
26563;BME280;14217;50.986;5.826;2023-04-23T22:26:53;99498.47;;;20.74;43.49
26563;BME280;14217;50.986;5.826;2023-04-23T22:31:55;99494.22;;;20.71;43.52
26563;BME280;14217;50.986;5.826;2023-04-23T22:36:57;99495.06;;;20.71;43.40
26563;BME280;14217;50.986;5.826;2023-04-23T22:41:59;99504.03;;;20.70;43.51
26563;BME280;14217;50.986;5.826;2023-04-23T22:47:01;99500.50;;;20.70;43.38
26563;BME280;14217;50.986;5.826;2023-04-23T22:52:03;99512.59;;;20.74;43.05
26563;BME280;14217;50.986;5.826;2023-04-23T22:57:05;99531.38;;;20.73;43.20
26563;BME280;14217;50.986;5.826;2023-04-23T23:02:07;99534.88;;;20.73;42.80
26563;BME280;14217;50.986;5.826;2023-04-23T23:07:09;99532.22;;;20.73;42.86
26563;BME280;14217;50.986;5.826;2023-04-23T23:12:11;99530.50;;;20.72;42.96
26563;BME280;14217;50.986;5.826;2023-04-23T23:17:13;99529.78;;;20.70;42.65
26563;BME280;14217;50.986;5.826;2023-04-23T23:22:15;99536.56;;;20.74;42.58
26563;BME280;14217;50.986;5.826;2023-04-23T23:27:17;99535.00;;;20.71;42.62
26563;BME280;14217;50.986;5.826;2023-04-23T23:32:18;99530.66;;;20.70;42.73
26563;BME280;14217;50.986;5.826;2023-04-23T23:37:20;99522.41;;;20.74;42.53
26563;BME280;14217;50.986;5.826;2023-04-23T23:42:23;99529.56;;;20.73;42.52
26563;BME280;14217;50.986;5.826;2023-04-23T23:47:24;99531.25;;;20.74;42.61
26563;BME280;14217;50.986;5.826;2023-04-23T23:52:26;99526.91;;;20.73;42.41
26563;BME280;14217;50.986;5.826;2023-04-23T23:57:28;99535.81;;;20.72;42.30
